EDT,Max TemperatureF,Mean TemperatureF,Min TemperatureF,Max Dew PointF,MeanDew PointF,Min DewpointF,Max Humidity, Mean Humidity, Min Humidity, Max Sea Level PressureIn, Mean Sea Level PressureIn, Min Sea Level PressureIn, Max VisibilityMiles, Mean VisibilityMiles, Min VisibilityMiles, Max Wind SpeedMPH, Mean Wind SpeedMPH, Max Gust SpeedMPH,PrecipitationIn, CloudCover, Events, WindDirDegrees
2013-7-1,87,80,72,75,73,70,100,93,65,30.01,29.95,29.90,10,6,0,29,7,40,2.85,6,Rain-Thunderstorm,155
2013-7-2,86,79,72,75,73,70,100,90,74,30.10,30.04,29.98,10,8,1,21,6,31,0.83,4,Rain-Thunderstorm,122
2013-7-3,89,82,74,76,73,70,100,87,63,30.13,30.08,30.05,10,8,0,23,6,28,0.83,4,Fog-Rain-Thunderstorm,150
2013-7-4,90,82,73,75,73,71,94,82,56,30.14,30.09,30.05,10,9,1,17,7,24,0.25,1,Rain-Thunderstorm,102
2013-7-5,89,82,74,75,73,70,94,82,59,30.12,30.09,30.04,10,8,0,26,7,35,0.70,3,Fog-Rain,125
2013-7-6,92,84,76,75,73,69,94,76,52,30.10,30.07,30.01,10,10,9,16,8,23,0.00,2,,106
2013-7-7,92,84,76,74,73,69,94,75,49,30.12,30.07,30.01,10,10,10,22,8,28,0.00,2,,97
2013-7-8,92,84,75,75,72,67,94,75,44,30.15,30.11,30.07,10,10,9,23,6,31,0.02,2,Rain-Thunderstorm,98
2013-7-9,89,82,74,75,72,71,94,82,59,30.16,30.12,30.06,10,8,1,18,4,28,0.50,2,Rain-Thunderstorm,75
2013-7-10,87,81,74,74,72,69,100,82,61,30.09,30.07,30.05,10,10,10,15,4,21,0.10,3,Thunderstorm,159
2013-7-11,87,81,75,75,73,70,94,78,57,30.02,29.99,29.95,10,10,10,12,3,14,T,1,Rain-Thunderstorm,178
2013-7-12,87,81,75,75,73,70,94,77,59,29.98,29.95,29.91,10,10,2,14,4,17,0.12,2,Rain-Thunderstorm,187
2013-7-13,87,80,73,75,73,71,100,86,65,30.00,29.96,29.93,10,8,0,15,5,20,1.14,4,Fog-Rain-Thunderstorm,118
2013-7-14,81,77,73,74,73,71,94,91,74,30.09,30.03,29.97,10,10,5,13,6,16,0.15,4,Rain-Thunderstorm,143
2013-7-15,88,80,72,73,72,68,94,82,53,30.10,30.07,30.03,10,9,2,18,5,23,0.11,3,Rain,79
2013-7-16,87,81,74,73,71,69,93,83,61,30.13,30.09,30.06,10,10,7,26,9,37,0.06,2,Rain,78
2013-7-17,86,80,74,74,72,68,100,83,61,30.13,30.10,30.04,10,10,3,26,8,36,0.03,4,Rain,88
2013-7-18,81,76,71,73,72,70,100,93,79,30.12,30.09,30.06,10,8,1,13,4,16,0.64,4,Rain,128
2013-7-19,89,80,71,77,73,69,100,83,55,30.13,30.08,30.04,10,9,2,15,5,20,0.37,3,Rain-Thunderstorm,99
2013-7-20,90,82,73,77,73,68,100,83,65,30.10,30.07,30.03,10,10,10,17,5,24,0.01,2,Thunderstorm,120
2013-7-21,89,82,75,78,75,71,100,86,63,30.14,30.09,30.05,10,10,4,12,4,15,0.04,3,Rain-Thunderstorm,182
2013-7-22,91,84,76,76,74,72,94,76,59,30.15,30.11,30.08,10,10,10,14,4,18,0.00,2,,217
2013-7-23,90,84,77,76,74,71,94,74,59,30.12,30.07,30.00,10,10,9,14,6,20,0.00,1,,269
2013-7-24,89,83,76,74,72,69,88,71,55,30.03,29.98,29.95,10,10,10,18,7,23,0.00,1,,266
2013-7-25,90,85,79,75,73,72,85,71,63,30.03,29.99,29.93,10,10,10,17,10,22,0.00,2,,267
2013-7-26,91,82,73,77,73,68,94,76,59,30.04,30.01,29.97,10,9,1,24,8,32,0.29,3,Rain-Thunderstorm,279
2013-7-27,92,84,76,77,74,71,94,76,56,30.01,29.97,29.93,10,8,1,16,5,21,0.56,3,Rain-Thunderstorm,304
2013-7-28,91,84,76,77,73,67,100,72,47,30.07,30.01,29.96,10,10,9,13,4,18,0.00,1,,248
2013-7-29,94,84,74,75,73,70,100,82,46,30.15,30.09,30.04,10,9,1,18,3,24,0.45,2,Rain-Thunderstorm,94
2013-7-30,93,83,73,77,74,72,100,83,52,30.17,30.13,30.09,10,10,10,24,3,29,T,2,Rain,89
2013-7-31,92,84,76,76,74,71,100,76,56,30.12,30.07,30.01,10,10,8,21,5,28,0.00,1,Thunderstorm,79